createdAt,value
2022-11-26T00:00:20.673Z,5.55
2022-11-26T00:08:37.981Z,5.59
2022-11-26T00:11:15.613Z,5.52
2022-11-26T00:27:19.870Z,5.15
2022-11-26T00:29:46.509Z,5.11
2022-11-26T00:32:25.109Z,5.06
2022-11-26T00:34:53.686Z,4.98
2022-11-26T00:43:18.096Z,4.86
2022-11-26T00:45:50.468Z,4.79
2022-11-26T00:48:19.119Z,4.73
2022-11-26T00:50:51.478Z,4.66
2022-11-26T00:53:25.966Z,4.55
2022-11-26T00:55:55.204Z,4.57
2022-11-26T00:58:30.322Z,4.54
2022-11-26T01:01:00.671Z,4.50
2022-11-26T01:03:27.374Z,4.51
2022-11-26T01:05:58.967Z,4.45
2022-11-26T01:08:36.023Z,4.50
2022-11-26T01:11:05.838Z,4.44
2022-11-26T01:13:33.206Z,4.40
2022-11-26T01:16:02.621Z,4.34
2022-11-26T01:18:35.289Z,4.31
2022-11-26T01:21:02.030Z,4.32
2022-11-26T01:23:28.690Z,4.28
2022-11-26T01:25:55.531Z,4.30
2022-11-26T01:28:24.797Z,4.23
2022-11-26T01:30:51.433Z,4.23
2022-11-26T01:33:18.010Z,4.20
2022-11-26T01:35:44.875Z,4.21
2022-11-26T01:38:15.444Z,4.20
2022-11-26T01:41:20.926Z,4.13
2022-11-26T01:43:51.870Z,4.09
2022-11-26T01:46:22.559Z,4.12
2022-11-26T01:48:50.745Z,4.18
2022-11-26T01:51:28.317Z,4.20
2022-11-26T01:54:00.808Z,4.21
2022-11-26T01:56:49.788Z,4.27
2022-11-26T01:59:50.193Z,4.25
2022-11-26T02:02:19.130Z,4.32
2022-11-26T02:05:24.230Z,4.32
2022-11-26T02:07:53.508Z,4.32
2022-11-26T02:10:20.305Z,4.31
2022-11-26T02:12:47.914Z,4.28
2022-11-26T02:15:14.760Z,4.28
2022-11-26T02:18:08.194Z,4.24
2022-11-26T02:21:25.991Z,4.17
2022-11-26T02:24:47.211Z,4.15
2022-11-26T02:28:01.983Z,4.11
2022-11-26T02:30:39.702Z,4.06
2022-11-26T02:33:35.082Z,3.99
2022-11-26T02:36:38.262Z,3.92
2022-11-26T02:39:22.197Z,3.90
2022-11-26T02:41:54.907Z,3.83
2022-11-26T02:44:40.602Z,3.82
2022-11-26T02:47:18.606Z,3.81
2022-11-26T02:49:52.526Z,3.78
2022-11-26T02:52:23.341Z,3.77
2022-11-26T02:54:54.502Z,3.71
2022-11-26T02:57:30.445Z,3.68
2022-11-26T03:00:09.049Z,3.68
2022-11-26T03:02:50.940Z,3.67
2022-11-26T03:05:25.700Z,3.64
2022-11-26T03:07:55.315Z,3.63
2022-11-26T03:10:31.054Z,3.62
2022-11-26T03:12:58.668Z,3.63
2022-11-26T03:15:25.571Z,3.59
2022-11-26T03:17:52.278Z,3.64
2022-11-26T03:20:19.032Z,3.62
2022-11-26T03:22:46.074Z,3.63
2022-11-26T03:25:13.306Z,3.65
2022-11-26T03:27:39.953Z,3.66
2022-11-26T03:30:08.221Z,3.62
2022-11-26T03:32:36.140Z,3.64
2022-11-26T03:35:04.376Z,3.62
2022-11-26T03:37:31.605Z,3.61
2022-11-26T03:39:58.357Z,3.60
2022-11-26T03:42:25.268Z,3.64
2022-11-26T03:44:51.930Z,3.70
2022-11-26T03:47:19.018Z,3.73
2022-11-26T03:49:45.895Z,3.77
2022-11-26T03:52:13.087Z,3.80
2022-11-26T03:54:40.153Z,3.80
2022-11-26T03:57:07.972Z,3.84
2022-11-26T03:59:34.699Z,3.83
2022-11-26T04:02:01.496Z,3.85
2022-11-26T04:04:28.506Z,3.83
2022-11-26T04:06:55.987Z,3.86
2022-11-26T04:09:23.377Z,3.85
2022-11-26T04:11:50.223Z,3.91
2022-11-26T04:14:17.408Z,3.93
2022-11-26T04:16:44.176Z,3.94
2022-11-26T04:19:10.930Z,3.99
2022-11-26T04:21:37.669Z,3.99
2022-11-26T04:24:04.855Z,4.03
2022-11-26T04:26:31.528Z,4.06
2022-11-26T04:28:58.234Z,4.10
2022-11-26T04:31:24.955Z,4.16
2022-11-26T04:33:52.114Z,4.23
2022-11-26T04:36:18.885Z,4.31
2022-11-26T04:38:45.487Z,4.33
2022-11-26T04:41:12.255Z,4.40
2022-11-26T04:43:38.937Z,4.43
2022-11-26T04:46:05.939Z,4.41
2022-11-26T04:48:32.689Z,4.43
2022-11-26T04:50:59.315Z,4.43
2022-11-26T04:53:26.039Z,4.46
2022-11-26T04:55:53.366Z,4.50
2022-11-26T04:58:22.174Z,4.56
2022-11-26T05:00:51.335Z,4.56
2022-11-26T05:03:19.439Z,4.59
2022-11-26T05:05:47.170Z,4.60
2022-11-26T05:08:14.556Z,4.64
2022-11-26T05:10:41.769Z,4.65
2022-11-26T05:13:08.936Z,4.69
2022-11-26T05:15:35.657Z,4.70
2022-11-26T05:18:03.611Z,4.74
2022-11-26T05:20:30.335Z,4.84
2022-11-26T05:22:59.662Z,4.93
2022-11-26T05:25:26.295Z,4.99
2022-11-26T05:27:52.948Z,5.03
2022-11-26T05:30:20.183Z,5.08
2022-11-26T05:32:46.798Z,5.16
2022-11-26T05:35:13.655Z,5.20
2022-11-26T05:37:40.347Z,5.27
2022-11-26T05:40:11.887Z,5.28
2022-11-26T05:42:39.525Z,5.29
2022-11-26T05:45:09.997Z,5.28
2022-11-26T05:47:36.698Z,5.33
2022-11-26T05:50:04.221Z,5.34
2022-11-26T05:52:31.020Z,5.40
2022-11-26T05:54:57.690Z,5.45
2022-11-26T05:57:24.376Z,5.49
2022-11-26T05:59:51.347Z,5.53
2022-11-26T06:02:18.472Z,5.56
2022-11-26T06:04:45.220Z,5.58
2022-11-26T06:07:14.934Z,5.60
2022-11-26T06:09:46.424Z,5.62
2022-11-26T06:12:13.212Z,5.63
2022-11-26T06:14:43.208Z,5.64
2022-11-26T06:17:11.947Z,5.65
2022-11-26T06:19:39.786Z,5.66
2022-11-26T06:22:09.231Z,5.65
2022-11-26T06:24:36.588Z,5.66
2022-11-26T06:27:03.815Z,5.69
2022-11-26T06:29:30.922Z,5.66
2022-11-26T06:31:57.638Z,5.64
2022-11-26T06:34:24.387Z,5.60
2022-11-26T06:36:51.449Z,5.61
2022-11-26T06:39:18.221Z,5.55
2022-11-26T06:41:45.126Z,5.52
2022-11-26T06:44:14.926Z,5.48
2022-11-26T06:46:41.644Z,5.43
2022-11-26T06:49:14.196Z,5.39
2022-11-26T06:51:40.895Z,5.36
2022-11-26T06:54:11.622Z,5.37
2022-11-26T07:02:00.913Z,5.30
2022-11-26T07:04:27.795Z,5.23
2022-11-26T07:07:01.772Z,5.13
2022-11-26T07:33:47.571Z,4.84
2022-11-26T07:36:30.451Z,4.84
2022-11-26T07:49:48.634Z,4.91
2022-11-26T07:57:36.754Z,4.97
2022-11-26T08:00:05.277Z,4.99
2022-11-26T08:02:31.944Z,4.96
2022-11-26T08:23:44.849Z,5.15
2022-11-26T08:26:30.641Z,5.21
2022-11-26T08:32:02.708Z,5.27
2022-11-26T09:17:40.996Z,5.31
2022-11-26T09:31:01.577Z,5.58
2022-11-26T09:33:29.874Z,5.60
2022-11-26T09:59:32.192Z,5.89
2022-11-26T10:47:31.616Z,6.57
2022-11-26T10:50:19.403Z,6.50
2022-11-26T10:58:39.720Z,6.63
2022-11-26T11:06:44.227Z,6.66
2022-11-26T11:32:40.670Z,6.79
2022-11-26T11:35:31.347Z,6.76
2022-11-26T11:46:52.530Z,6.88
2022-11-26T11:50:17.597Z,6.93
2022-11-26T12:10:22.237Z,6.89
2022-11-26T12:12:59.101Z,6.88
2022-11-26T12:15:45.028Z,6.76
2022-11-26T12:47:54.074Z,6.43
2022-11-26T12:50:38.189Z,6.43
2022-11-26T13:06:01.580Z,6.49
2022-11-26T13:09:03.661Z,6.50
2022-11-26T13:12:08.113Z,6.44
2022-11-26T13:15:12.091Z,6.47
2022-11-26T13:17:48.019Z,6.46
2022-11-26T13:20:44.595Z,6.46
2022-11-26T13:24:18.644Z,6.45
2022-11-26T13:27:22.185Z,6.41
2022-11-26T13:30:03.577Z,6.45
2022-11-26T13:32:43.448Z,6.45
2022-11-26T13:35:49.406Z,6.47
2022-11-26T13:38:52.706Z,6.47
2022-11-26T13:41:52.083Z,6.50
2022-11-26T13:44:40.619Z,6.46
2022-11-26T13:47:19.583Z,6.46
2022-11-26T13:50:32.377Z,6.46
2022-11-26T13:53:23.712Z,6.46
2022-11-26T13:56:05.289Z,6.47
2022-11-26T13:59:07.129Z,6.47
2022-11-26T14:01:40.945Z,6.46
2022-11-26T14:04:15.930Z,6.45
2022-11-26T14:07:08.623Z,6.44
2022-11-26T14:10:02.102Z,6.38
2022-11-26T14:13:03.231Z,6.35
2022-11-26T14:15:42.043Z,6.34
2022-11-26T14:18:17.594Z,6.33
2022-11-26T14:20:59.751Z,6.37
2022-11-26T14:23:41.766Z,6.37
2022-11-26T14:26:37.046Z,6.36
2022-11-26T14:29:13.239Z,6.32
2022-11-26T14:31:54.647Z,6.30
2022-11-26T14:34:49.111Z,6.29
2022-11-26T14:37:20.810Z,6.29
2022-11-26T14:40:08.061Z,6.29
2022-11-26T14:42:37.843Z,6.24
2022-11-26T14:45:23.797Z,6.23
2022-11-26T14:47:55.480Z,6.22
2022-11-26T14:50:25.158Z,6.18
2022-11-26T14:53:04.739Z,6.18
2022-11-26T14:55:37.387Z,6.19
2022-11-26T14:58:14.964Z,6.19
2022-11-26T15:00:44.686Z,6.20
2022-11-26T15:03:25.698Z,6.20
2022-11-26T15:05:52.372Z,6.19
2022-11-26T15:08:27.001Z,6.15
2022-11-26T15:11:11.060Z,6.16
2022-11-26T15:13:46.468Z,6.16
2022-11-26T15:16:38.163Z,6.15
2022-11-26T15:19:07.378Z,6.10
2022-11-26T15:21:40.514Z,6.11
2022-11-26T15:24:09.106Z,6.11
2022-11-26T15:26:38.067Z,6.10
2022-11-26T15:29:41.345Z,6.11
2022-11-26T15:32:30.829Z,6.10
2022-11-26T15:35:02.939Z,6.09
2022-11-26T15:37:29.903Z,6.09
2022-11-26T15:40:33.627Z,6.08
2022-11-26T15:43:04.435Z,6.04
2022-11-26T15:45:41.184Z,6.03
2022-11-26T15:48:50.505Z,6.02
2022-11-26T15:51:36.262Z,6.01
2022-11-26T15:54:43.436Z,5.98
2022-11-26T15:57:34.932Z,5.99
2022-11-26T16:00:40.314Z,5.99
2022-11-26T16:03:38.423Z,6.01
2022-11-26T16:06:11.888Z,6.02
2022-11-26T16:08:43.034Z,6.00
2022-11-26T16:11:21.751Z,5.99
2022-11-26T16:13:48.389Z,5.99
2022-11-26T16:16:24.697Z,5.96
2022-11-26T16:19:01.696Z,5.97
2022-11-26T16:21:36.736Z,5.95
2022-11-26T16:24:34.630Z,5.92
2022-11-26T16:27:08.865Z,5.89
2022-11-26T16:29:36.016Z,5.87
2022-11-26T16:32:05.656Z,5.83
2022-11-26T16:34:32.237Z,5.82
2022-11-26T16:37:31.815Z,5.85
2022-11-26T16:40:14.053Z,5.86
2022-11-26T16:42:40.744Z,5.83
2022-11-26T16:45:12.945Z,5.86
2022-11-26T16:47:49.952Z,5.86
2022-11-26T16:50:24.346Z,5.88
2022-11-26T16:52:55.205Z,5.90
2022-11-26T16:55:26.467Z,5.86
2022-11-26T16:58:01.421Z,5.92
2022-11-26T17:00:35.674Z,5.90
2022-11-26T17:03:02.367Z,5.93
2022-11-26T17:05:29.116Z,5.91
2022-11-26T17:08:01.035Z,5.92
2022-11-26T17:10:30.382Z,5.96
2022-11-26T17:13:00.168Z,5.96
2022-11-26T17:15:26.809Z,5.94
2022-11-26T17:18:05.093Z,5.95
2022-11-26T17:20:31.854Z,5.88
2022-11-26T17:22:58.645Z,5.82
2022-11-26T17:25:30.342Z,5.77
2022-11-26T17:28:09.811Z,5.76
2022-11-26T17:30:39.103Z,5.74
2022-11-26T18:16:09.692Z,5.64
2022-11-26T18:37:38.292Z,5.64
2022-11-26T18:40:10.572Z,5.61
2022-11-26T18:42:38.554Z,5.56
2022-11-26T19:34:06.216Z,5.41
2022-11-26T19:36:33.992Z,5.39
2022-11-26T19:41:45.260Z,5.39
2022-11-26T20:38:04.707Z,5.68
2022-11-26T20:51:35.028Z,5.77
2022-11-26T20:54:02.395Z,5.79
2022-11-26T20:56:29.525Z,5.78
2022-11-26T20:58:56.622Z,5.81
2022-11-26T21:09:31.494Z,5.89
2022-11-26T21:33:28.135Z,5.97
2022-11-26T22:00:27.251Z,6.08
2022-11-26T22:27:19.846Z,6.18
2022-11-26T22:40:32.244Z,6.27
2022-11-26T22:43:01.522Z,6.29
2022-11-26T22:45:29.731Z,6.29
2022-11-26T22:50:44.497Z,6.32
2022-11-26T22:56:02.609Z,6.33
2022-11-26T22:58:33.039Z,6.35
2022-11-26T23:01:08.435Z,6.36
2022-11-26T23:06:25.314Z,6.38
2022-11-26T23:38:30.873Z,6.42
2022-11-26T23:41:02.934Z,6.43
2022-11-26T23:43:33.378Z,6.43
2022-11-26T23:46:13.671Z,6.42
2022-11-26T23:48:41.922Z,6.43
2022-11-26T23:51:23.343Z,6.44
